createdAt,value
2019-03-25T00:09:53.248Z,6.94
2019-03-25T00:19:57.228Z,7.19
2019-03-25T00:30:01.151Z,6.81
2019-03-25T00:40:06.363Z,7.00
2019-03-25T00:50:10.193Z,7.12
2019-03-25T01:00:15.281Z,7.00
2019-03-25T01:10:19.123Z,6.94
2019-03-25T01:20:24.306Z,7.06
2019-03-25T01:30:29.284Z,7.12
2019-03-25T01:40:33.246Z,6.94
2019-03-25T01:50:38.331Z,6.81
2019-03-25T02:00:42.376Z,6.75
2019-03-25T02:10:46.220Z,6.56
2019-03-25T02:20:50.212Z,6.37
2019-03-25T02:30:55.177Z,6.12
2019-03-25T02:40:59.263Z,6.06
2019-03-25T02:51:03.101Z,6.37
2019-03-25T03:01:08.284Z,6.37
2019-03-25T03:11:13.221Z,6.44
2019-03-25T03:21:17.223Z,6.37
2019-03-25T03:31:21.323Z,6.31
2019-03-25T03:41:25.139Z,6.12
2019-03-25T03:51:30.219Z,6.37
2019-03-25T04:01:34.123Z,6.06
2019-03-25T04:11:38.960Z,6.25
2019-03-25T04:21:44.273Z,6.12
2019-03-25T04:31:48.114Z,6.12
2019-03-25T04:41:52.107Z,6.25
2019-03-25T04:51:56.114Z,6.19
2019-03-25T05:02:00.656Z,6.12
2019-03-25T05:12:06.246Z,6.37
2019-03-25T05:22:11.139Z,6.37
2019-03-25T05:32:15.093Z,6.50
2019-03-25T05:42:19.969Z,6.50
2019-03-25T05:52:24.642Z,6.69
2019-03-25T06:02:29.253Z,6.87
2019-03-25T06:12:33.123Z,7.00
2019-03-25T06:22:37.638Z,7.37
2019-03-25T06:32:42.256Z,7.31
2019-03-25T06:42:46.016Z,7.62
2019-03-25T06:52:50.677Z,7.75
2019-03-25T07:02:55.256Z,7.94
2019-03-25T07:12:59.320Z,8.00
2019-03-25T07:23:03.098Z,8.38
2019-03-25T07:33:08.094Z,8.56
2019-03-25T07:43:12.090Z,8.63
2019-03-25T07:53:16.631Z,8.94
2019-03-25T08:03:21.218Z,9.50
2019-03-25T08:13:25.133Z,9.94
2019-03-25T08:23:29.934Z,10.25
2019-03-25T08:33:34.627Z,10.81
2019-03-25T08:43:38.246Z,10.75
2019-03-25T08:53:42.656Z,10.75
2019-03-25T09:03:47.228Z,11.06
2019-03-25T09:13:51.119Z,11.06
2019-03-25T09:23:56.131Z,10.94
2019-03-25T09:34:01.281Z,10.63
2019-03-25T09:44:05.146Z,10.50
2019-03-25T09:54:10.103Z,11.94
2019-03-25T10:04:14.643Z,12.06
2019-03-25T10:14:18.266Z,11.00
2019-03-25T10:24:27.813Z,11.75
2019-03-25T10:34:30.286Z,11.81
2019-03-25T10:44:34.143Z,12.44
2019-03-25T10:54:38.769Z,11.88
2019-03-25T11:04:43.469Z,11.81
2019-03-25T11:14:48.251Z,11.25
2019-03-25T11:24:53.051Z,10.63
2019-03-25T11:34:57.690Z,10.69
2019-03-25T11:45:02.307Z,11.00
2019-03-25T11:55:07.271Z,13.00
2019-03-25T12:05:11.174Z,14.63
2019-03-25T12:15:16.220Z,13.94
2019-03-25T12:25:20.101Z,13.31
2019-03-25T12:35:24.954Z,11.75
2019-03-25T12:45:30.080Z,9.94
2019-03-25T12:55:35.273Z,9.69
2019-03-25T13:05:39.357Z,9.63
2019-03-25T13:15:43.100Z,10.19
2019-03-25T13:25:47.660Z,10.88
2019-03-25T13:35:52.279Z,11.56
2019-03-25T13:46:04.977Z,14.50
2019-03-25T13:56:02.330Z,13.19
2019-03-25T14:06:06.090Z,12.06
2019-03-25T14:16:10.636Z,11.25
2019-03-25T14:26:14.212Z,10.75
2019-03-25T14:36:19.227Z,9.88
2019-03-25T14:46:23.619Z,9.19
2019-03-25T14:56:27.130Z,9.13
2019-03-25T15:06:31.062Z,8.81
2019-03-25T15:24:41.215Z,7.50
2019-03-25T15:34:45.327Z,7.44
2019-03-25T15:44:49.126Z,7.19
2019-03-25T15:54:53.640Z,7.19
2019-03-25T16:04:58.236Z,7.25
2019-03-25T16:15:02.052Z,7.50
2019-03-25T16:25:07.922Z,6.94
2019-03-25T16:35:13.137Z,6.69
2019-03-25T16:45:17.079Z,6.62
2019-03-25T16:55:21.839Z,6.75
2019-03-25T17:05:26.357Z,6.62
2019-03-25T17:15:30.096Z,6.50
2019-03-25T17:25:34.052Z,6.44
2019-03-25T17:35:38.077Z,6.31
2019-03-25T17:45:42.632Z,6.31
2019-03-25T17:55:47.246Z,6.00
2019-03-25T18:05:51.054Z,5.75
2019-03-25T18:15:55.158Z,5.81
2019-03-25T18:25:59.101Z,6.00
2019-03-25T18:36:03.648Z,6.00
2019-03-25T18:46:08.250Z,5.94
2019-03-25T18:56:12.121Z,6.25
2019-03-25T19:06:17.330Z,6.12
2019-03-25T19:16:21.113Z,6.12
2019-03-25T19:26:25.106Z,6.31
2019-03-25T19:43:22.239Z,6.12
2019-03-25T19:53:28.239Z,6.00
2019-03-25T20:03:33.044Z,5.87
2019-03-25T20:13:37.667Z,5.56
2019-03-25T20:23:41.320Z,5.69
2019-03-25T20:33:45.167Z,5.56
2019-03-25T20:43:50.036Z,5.56
2019-03-25T20:53:55.240Z,5.31
2019-03-25T21:03:59.165Z,5.44
2019-03-25T21:14:04.268Z,5.31
2019-03-25T21:24:09.200Z,5.31
2019-03-25T21:34:14.271Z,4.94
2019-03-25T21:44:18.537Z,5.00
2019-03-25T21:54:22.256Z,5.19
2019-03-25T22:04:26.148Z,5.25
2019-03-25T22:14:30.166Z,4.94
2019-03-25T22:24:34.144Z,5.19
2019-03-25T22:34:39.304Z,5.12
2019-03-25T22:44:43.221Z,5.31
2019-03-25T22:54:47.152Z,5.12
2019-03-25T23:04:51.219Z,4.87
2019-03-25T23:14:56.217Z,5.00
2019-03-25T23:25:00.359Z,4.44
2019-03-25T23:35:05.281Z,4.44
2019-03-25T23:45:10.300Z,4.37
2019-03-25T23:55:14.160Z,4.12
